Wedowee, AL (36278)

8:18 AM CDT on August 28, 2015 (GMT -0500)
Swagg Cove | | Change Station
CLOSE
Current Station
Personal Weather Station
Location: Wedowee, AL
Elevation: 801 ft
Nearby Weather Stations

Elev 801 ft 33.35 °N, 85.55 °W | Updated 7 minutes ago

Mostly Cloudy
Mostly Cloudy
71.2 °F
Feels Like 71 °F
N
0.7
Wind Variable Wind from ENE
Gusts 5.4 mph

Today
High -- | Low -- °F
--% Chance of Precip.
Yesterday
High -- | Low -- °F
Precip. -- in
6:13 AM 7:12 PM
Waxing Gibbous, 98% visible
Pressure 30.11 in
Visibility 6.0 miles
Clouds Scattered Clouds 1800 ft
Heat Index 71 °F
Dew Point 66 °F
Humidity 82%
Rainfall 0.00 in
Snow Depth Not available.
UV 1 out of 12
Pollen 8.50 out of 12
Air Quality Not available.
Flu Activity Not available.
SPECI KANB 281302Z AUTO 09004KT 6SM HZ SCT018 22/19 A3011 RMK AO2 T02220194
Pressure 30.11 in
Visibility 6.0 miles
Clouds Scattered Clouds 1800 ft
Heat Index 71 °F
Dew Point 66 °F
Humidity 82%
Rainfall 0.00 in
Snow Depth Not available.
UV 1 out of 12
Pollen 8.50 out of 12
Air Quality Not available.
Flu Activity Not available.
SPECI KANB 281302Z AUTO 09004KT 6SM HZ SCT018 22/19 A3011 RMK AO2 T02220194

10-Day Weather Forecast

×

Almanac

Astronomy

Aug. 28, 2015 Rise Set
Actual Time
Civil Twilight
Nautical Twilight
Astronomical Twilight
Moon
Length of Visible Light
Length of Day
Tomorrow will be .
, % of the Moon is Illuminated

Today's Extremes

State Highs State Lows

Community

WunderPhotos

Upload Photos

1,850,375 photos uploaded!

WunderBlogs® & News

Nearby

Air Quality

  Air Quality AQ Index Pollutant
Not available.

Snow Depth

Station Depth Elevation

Earthquake Activity

City Distance Mag. Time & Date
Minimum magnitude displayed is 2.5.

Coastal Water Temperatures

Place Temperature

Stations

Nearby Weather Stations

Station Location Temp. Windchill Dew Point Humidity Wind Precip. Elev Updated Type